createdAt,value
2022-12-23T18:25:42.042Z,61.45
2022-12-23T18:28:40.302Z,62.29
2022-12-23T18:31:38.428Z,57.75
2022-12-23T18:34:35.883Z,54.82
2022-12-23T18:37:33.311Z,55.83
2022-12-23T18:40:32.991Z,57.39
2022-12-23T18:43:30.878Z,59.25
2022-12-23T18:46:28.338Z,64.33
2022-12-23T18:49:25.876Z,67.72
2022-12-23T18:52:23.339Z,67.83
2022-12-23T18:55:20.902Z,64.93
2022-12-23T18:58:18.465Z,63.50
2022-12-23T19:01:15.958Z,65.91
2022-12-23T19:04:13.795Z,63.81
2022-12-23T19:07:11.359Z,63.37
2022-12-23T19:10:09.022Z,63.50
2022-12-23T19:13:06.686Z,62.83
2022-12-23T19:16:04.292Z,61.01
2022-12-23T19:19:01.950Z,60.87
2022-12-23T19:21:59.485Z,60.01
2022-12-23T19:25:05.317Z,59.74
2022-12-23T19:28:04.023Z,61.12
2022-12-23T19:31:01.505Z,60.22
2022-12-23T19:33:59.047Z,56.81
2022-12-23T19:36:56.606Z,55.02
2022-12-23T19:39:54.051Z,55.93
2022-12-23T19:42:51.857Z,57.54
2022-12-23T19:45:49.687Z,59.41
2022-12-23T19:48:47.163Z,67.54
2022-12-23T19:51:45.172Z,70.30
2022-12-23T19:54:43.393Z,67.24
2022-12-23T19:57:41.490Z,65.30
2022-12-23T20:00:39.671Z,63.46
2022-12-23T20:03:37.552Z,61.45
2022-12-23T20:06:34.988Z,57.30
2022-12-23T20:09:32.969Z,54.95
2022-12-23T20:12:31.044Z,56.10
2022-12-23T20:15:30.415Z,57.80
2022-12-23T20:18:30.225Z,59.44
2022-12-23T20:21:29.184Z,67.28
2022-12-23T20:24:27.598Z,69.09
2022-12-23T20:27:28.263Z,66.70
2022-12-23T20:30:28.624Z,65.63
2022-12-23T20:33:26.985Z,65.90
2022-12-23T20:36:24.583Z,64.44
2022-12-23T20:39:22.934Z,63.40
2022-12-23T20:42:20.694Z,62.12
2022-12-23T20:45:19.290Z,61.06
2022-12-23T20:48:18.194Z,56.70
2022-12-23T20:51:16.559Z,55.03
2022-12-23T20:54:14.119Z,56.51
2022-12-23T20:57:11.993Z,58.16
2022-12-23T21:00:09.549Z,64.67
2022-12-23T21:03:10.566Z,70.24
2022-12-23T21:06:08.467Z,66.57
2022-12-23T21:09:06.431Z,64.40
2022-12-23T21:12:03.973Z,62.13
2022-12-23T21:15:01.875Z,61.87
2022-12-23T21:17:59.752Z,60.84
2022-12-23T21:20:57.206Z,60.04
2022-12-23T21:23:54.764Z,57.26
2022-12-23T21:26:56.328Z,55.10
2022-12-23T21:29:54.513Z,56.47
2022-12-23T21:32:52.056Z,58.54
2022-12-23T21:35:49.931Z,63.12
2022-12-23T21:38:47.387Z,65.69
2022-12-23T21:41:46.394Z,66.85
2022-12-23T21:44:43.848Z,65.49
2022-12-23T21:47:41.839Z,65.75
2022-12-23T21:50:39.585Z,65.24
2022-12-23T21:53:37.459Z,63.84
2022-12-23T21:56:35.026Z,65.73
2022-12-23T21:59:35.120Z,64.64
2022-12-23T22:02:33.140Z,62.47
2022-12-23T22:05:31.182Z,62.71
2022-12-23T22:08:28.751Z,63.49
2022-12-23T22:11:27.214Z,63.34
2022-12-23T22:14:24.659Z,63.57
2022-12-23T22:17:22.560Z,65.40
2022-12-23T22:20:20.129Z,63.45
2022-12-23T22:23:18.107Z,63.96
2022-12-23T22:26:20.231Z,63.73
2022-12-23T22:29:21.907Z,65.35
2022-12-23T22:32:19.344Z,62.98
2022-12-23T22:35:17.359Z,63.22
2022-12-23T22:38:14.777Z,64.52
2022-12-23T22:41:12.660Z,62.66
2022-12-23T22:44:10.152Z,62.69
2022-12-23T22:47:08.100Z,63.68
2022-12-23T22:50:05.591Z,64.01
2022-12-23T22:53:03.548Z,63.71
2022-12-23T22:56:01.019Z,65.05
2022-12-23T22:58:58.863Z,63.94
2022-12-23T23:01:56.415Z,62.84
2022-12-23T23:04:54.297Z,62.40
2022-12-23T23:07:51.764Z,63.17
2022-12-23T23:10:49.639Z,63.33
2022-12-23T23:13:47.200Z,64.46
2022-12-23T23:16:45.250Z,64.71
2022-12-23T23:19:42.741Z,64.60
2022-12-23T23:22:40.620Z,63.33
2022-12-23T23:25:38.173Z,63.10
2022-12-23T23:28:36.144Z,63.53
2022-12-23T23:31:42.918Z,63.03
2022-12-23T23:34:42.740Z,63.63
2022-12-23T23:37:40.194Z,63.62
2022-12-23T23:40:38.166Z,64.47
2022-12-23T23:43:35.627Z,65.00
2022-12-23T23:46:33.543Z,66.12
2022-12-23T23:49:31.265Z,67.26
2022-12-23T23:52:29.347Z,67.57
2022-12-23T23:55:27.616Z,68.01
2022-12-23T23:58:25.076Z,68.19
